createdAt,value
2018-10-19T00:01:49.228Z,13.00
2018-10-19T00:04:17.692Z,12.90
2018-10-19T00:06:46.182Z,12.90
2018-10-19T00:09:14.705Z,13.00
2018-10-19T00:11:43.148Z,12.90
2018-10-19T00:14:11.597Z,12.90
2018-10-19T00:16:40.072Z,13.00
2018-10-19T00:19:08.529Z,13.00
2018-10-19T00:21:37.016Z,13.00
2018-10-19T00:24:05.720Z,12.90
2018-10-19T00:26:34.220Z,12.90
2018-10-19T00:29:02.729Z,12.90
2018-10-19T00:31:31.188Z,13.00
2018-10-19T00:33:59.682Z,13.00
2018-10-19T00:36:28.136Z,13.00
2018-10-19T00:38:56.628Z,13.00
2018-10-19T00:41:25.092Z,13.00
2018-10-19T00:43:53.568Z,13.00
2018-10-19T00:46:22.060Z,13.10
2018-10-19T00:48:50.548Z,13.10
2018-10-19T00:51:19.014Z,13.10
2018-10-19T00:53:47.489Z,13.10
2018-10-19T00:56:15.936Z,13.10
2018-10-19T00:58:44.425Z,13.10
2018-10-19T01:01:12.896Z,13.10
2018-10-19T01:03:41.396Z,13.10
2018-10-19T01:06:09.857Z,13.10
2018-10-19T01:08:38.368Z,13.10
2018-10-19T01:11:06.875Z,13.00
2018-10-19T01:13:35.337Z,13.00
2018-10-19T01:16:03.792Z,13.00
2018-10-19T01:18:32.268Z,13.00
2018-10-19T01:21:00.795Z,13.00
2018-10-19T01:23:29.265Z,13.00
2018-10-19T01:25:57.727Z,13.00
2018-10-19T01:28:26.228Z,12.90
2018-10-19T01:30:54.688Z,12.90
2018-10-19T01:33:23.200Z,12.90
2018-10-19T01:35:51.675Z,12.80
2018-10-19T01:38:20.175Z,12.80
2018-10-19T01:40:48.660Z,12.80
2018-10-19T01:43:17.148Z,12.80
2018-10-19T01:45:50.849Z,12.70
2018-10-19T01:48:19.416Z,12.60
2018-10-19T01:50:47.883Z,12.60
2018-10-19T01:53:16.505Z,12.60
2018-10-19T01:55:44.972Z,12.60
2018-10-19T01:58:13.597Z,12.60
2018-10-19T02:00:42.060Z,12.50
2018-10-19T02:03:10.762Z,12.50
2018-10-19T02:05:39.479Z,12.50
2018-10-19T02:08:09.017Z,12.50
2018-10-19T02:10:37.504Z,12.50
2018-10-19T02:13:06.696Z,12.40
2018-10-19T02:15:35.185Z,12.40
2018-10-19T02:18:03.788Z,12.40
2018-10-19T02:20:32.247Z,12.30
2018-10-19T02:23:00.741Z,12.30
2018-10-19T02:25:29.236Z,12.30
2018-10-19T02:27:57.697Z,12.30
2018-10-19T02:30:26.216Z,12.20
2018-10-19T02:32:54.691Z,12.20
2018-10-19T02:35:23.188Z,12.20
2018-10-19T02:37:51.636Z,12.20
2018-10-19T02:40:20.160Z,12.20
2018-10-19T02:42:48.624Z,12.20
2018-10-19T02:45:17.256Z,12.10
2018-10-19T02:47:45.626Z,12.10
2018-10-19T02:50:14.137Z,12.00
2018-10-19T02:52:42.605Z,12.00
2018-10-19T02:55:11.115Z,11.90
2018-10-19T02:57:39.593Z,12.00
2018-10-19T03:00:10.102Z,11.90
2018-10-19T03:02:38.590Z,11.90
2018-10-19T03:05:08.020Z,11.90
2018-10-19T03:07:36.468Z,11.90
2018-10-19T03:10:05.537Z,11.90
2018-10-19T03:12:34.041Z,11.90
2018-10-19T03:15:02.636Z,11.80
2018-10-19T03:17:31.070Z,11.80
2018-10-19T03:19:59.789Z,11.80
2018-10-19T03:22:28.278Z,11.70
2018-10-19T03:24:56.774Z,11.70
2018-10-19T03:27:25.301Z,11.70
2018-10-19T03:29:53.813Z,11.70
2018-10-19T03:32:22.316Z,11.70
2018-10-19T03:34:50.849Z,11.60
2018-10-19T03:37:19.381Z,11.60
2018-10-19T03:39:47.897Z,11.60
2018-10-19T03:42:16.385Z,11.50
2018-10-19T03:44:45.114Z,11.50
2018-10-19T03:47:13.637Z,11.50
2018-10-19T03:49:42.150Z,11.50
2018-10-19T03:52:10.637Z,11.40
2018-10-19T03:54:39.154Z,11.50
2018-10-19T03:57:07.655Z,11.40
2018-10-19T03:59:36.184Z,11.40
2018-10-19T04:02:04.752Z,11.40
2018-10-19T04:04:33.266Z,11.40
2018-10-19T04:07:01.753Z,11.40
2018-10-19T04:09:30.265Z,11.30
2018-10-19T04:11:58.753Z,11.30
2018-10-19T04:14:27.693Z,11.30
2018-10-19T04:16:56.261Z,11.30
2018-10-19T04:19:24.693Z,11.30
2018-10-19T04:21:53.212Z,11.20
2018-10-19T04:24:21.701Z,11.10
2018-10-19T04:26:50.217Z,11.20
2018-10-19T04:29:18.787Z,11.10
2018-10-19T04:31:47.293Z,11.10
2018-10-19T04:34:15.774Z,11.10
2018-10-19T04:36:44.285Z,11.10
2018-10-19T04:39:12.809Z,11.10
2018-10-19T04:41:41.309Z,11.10
2018-10-19T04:44:09.789Z,11.10
2018-10-19T04:46:38.313Z,11.10
2018-10-19T04:49:06.837Z,11.10
2018-10-19T04:51:35.355Z,11.10
2018-10-19T04:54:03.893Z,11.10
2018-10-19T04:56:32.405Z,11.10
2018-10-19T04:59:00.924Z,11.10
2018-10-19T05:01:29.413Z,11.00
2018-10-19T05:03:57.897Z,11.00
2018-10-19T05:06:26.438Z,11.00
2018-10-19T05:08:54.888Z,11.00
2018-10-19T05:11:23.397Z,11.00
2018-10-19T05:13:51.876Z,10.90
2018-10-19T05:16:21.093Z,10.90
2018-10-19T05:18:49.612Z,10.90
2018-10-19T05:21:18.110Z,10.90
2018-10-19T05:23:46.588Z,10.90
2018-10-19T05:26:15.132Z,10.80
2018-10-19T05:28:43.593Z,10.80
2018-10-19T05:31:12.113Z,10.80
2018-10-19T05:33:40.606Z,10.80
2018-10-19T05:36:09.117Z,10.80
2018-10-19T05:38:37.604Z,10.80
2018-10-19T05:41:06.241Z,10.80
2018-10-19T05:43:34.760Z,10.80
2018-10-19T05:46:03.221Z,10.80
2018-10-19T05:48:31.697Z,10.70
2018-10-19T05:51:00.261Z,10.80
2018-10-19T05:53:28.749Z,10.80
2018-10-19T05:55:57.267Z,10.70
2018-10-19T05:58:25.756Z,10.80
2018-10-19T06:00:54.261Z,10.70
2018-10-19T06:03:22.742Z,10.70
2018-10-19T06:05:51.620Z,10.70
2018-10-19T06:08:20.109Z,10.70
2018-10-19T06:10:48.849Z,10.70
2018-10-19T06:13:17.355Z,10.70
2018-10-19T06:15:45.853Z,10.70
2018-10-19T06:18:14.372Z,10.70
2018-10-19T06:20:42.997Z,10.70
2018-10-19T06:23:11.597Z,10.70
2018-10-19T06:25:40.004Z,10.70
2018-10-19T06:28:08.513Z,10.70
2018-10-19T06:30:36.991Z,10.70
2018-10-19T06:33:05.684Z,10.70
2018-10-19T06:35:34.157Z,10.80
2018-10-19T06:38:02.714Z,10.80
2018-10-19T06:40:31.216Z,10.90
2018-10-19T06:42:59.705Z,10.90
2018-10-19T06:45:28.202Z,11.00
2018-10-19T06:47:56.765Z,11.00
2018-10-19T06:50:25.241Z,11.10
2018-10-19T06:52:54.069Z,11.20
2018-10-19T06:55:23.061Z,11.20
2018-10-19T06:57:51.570Z,11.30
2018-10-19T07:00:20.049Z,11.40
2018-10-19T07:02:48.581Z,11.40
2018-10-19T07:05:17.106Z,11.50
2018-10-19T07:07:45.673Z,11.60
2018-10-19T07:10:14.158Z,11.60
2018-10-19T07:12:42.713Z,11.70
2018-10-19T07:15:11.497Z,11.70
2018-10-19T07:17:39.997Z,11.80
2018-10-19T07:20:09.992Z,11.90
2018-10-19T07:22:38.836Z,11.90
2018-10-19T07:25:07.501Z,12.00
2018-10-19T07:27:36.085Z,12.00
2018-10-19T07:30:05.072Z,12.00
2018-10-19T07:32:33.580Z,12.10
2018-10-19T07:35:02.101Z,12.10
2018-10-19T07:37:30.602Z,12.20
2018-10-19T07:39:59.085Z,12.30
2018-10-19T07:42:27.710Z,12.40
2018-10-19T07:44:56.095Z,12.50
2018-10-19T07:47:24.804Z,12.60
2018-10-19T07:49:53.143Z,12.70
2018-10-19T07:52:21.656Z,12.80
2018-10-19T07:54:50.280Z,12.90
2018-10-19T07:57:18.792Z,13.00
2018-10-19T07:59:47.263Z,13.10
2018-10-19T08:02:15.782Z,13.30
2018-10-19T08:04:44.461Z,13.40
2018-10-19T08:07:12.981Z,13.50
2018-10-19T08:09:41.482Z,13.60
2018-10-19T08:12:09.961Z,13.60
2018-10-19T08:14:38.469Z,13.80
2018-10-19T08:17:06.988Z,13.90
2018-10-19T08:19:35.509Z,14.10
2018-10-19T08:22:04.017Z,14.30
2018-10-19T08:24:32.513Z,14.50
2018-10-19T08:27:01.009Z,14.80
2018-10-19T08:29:29.521Z,15.00
2018-10-19T08:31:58.185Z,15.40
2018-10-19T08:34:26.645Z,15.70
2018-10-19T08:36:55.133Z,16.10
2018-10-19T08:39:23.641Z,16.70
2018-10-19T08:41:52.496Z,17.70
2018-10-19T08:44:22.007Z,18.80
2018-10-19T08:46:50.491Z,20.00
2018-10-19T08:49:19.081Z,21.20
2018-10-19T08:51:47.533Z,22.40
2018-10-19T08:54:16.049Z,23.20
2018-10-19T08:56:44.541Z,23.90
2018-10-19T08:59:13.171Z,24.90
2018-10-19T09:01:41.581Z,25.70
2018-10-19T09:04:10.184Z,26.60
2018-10-19T09:06:38.609Z,27.10
2018-10-19T09:09:09.285Z,27.30
2018-10-19T09:11:38.042Z,27.80
2018-10-19T09:14:18.013Z,28.10
2018-10-19T09:16:46.806Z,28.20
2018-10-19T09:19:15.345Z,28.70
2018-10-19T09:21:43.860Z,29.10
2018-10-19T09:24:12.436Z,29.70
2018-10-19T09:26:42.133Z,30.30
2018-10-19T09:29:10.695Z,30.50
2018-10-19T09:31:39.188Z,30.00
2018-10-19T09:34:07.705Z,29.50
2018-10-19T09:36:36.251Z,30.00
2018-10-19T09:39:07.213Z,30.70
2018-10-19T09:41:35.686Z,31.20
2018-10-19T09:44:04.409Z,31.50
2018-10-19T09:46:32.957Z,31.40
2018-10-19T09:49:01.491Z,31.90
2018-10-19T09:51:29.973Z,32.20
2018-10-19T09:53:58.478Z,33.10
2018-10-19T09:56:26.966Z,33.30
2018-10-19T09:58:55.485Z,33.30
2018-10-19T10:01:28.537Z,32.80
2018-10-19T10:03:57.169Z,32.00
2018-10-19T10:06:25.676Z,31.30
2018-10-19T10:08:54.217Z,30.90
2018-10-19T10:11:22.745Z,30.60
2018-10-19T10:13:51.589Z,30.50
2018-10-19T10:16:20.152Z,30.80
2018-10-19T10:18:48.665Z,31.00
2018-10-19T10:21:17.369Z,30.90
2018-10-19T10:23:45.848Z,31.60
2018-10-19T10:26:14.897Z,32.00
2018-10-19T10:28:43.477Z,32.40
2018-10-19T10:31:12.084Z,32.90
2018-10-19T10:33:40.520Z,33.30
2018-10-19T10:36:09.033Z,33.40
2018-10-19T10:38:37.533Z,33.70
2018-10-19T10:41:06.078Z,33.90
2018-10-19T10:43:34.564Z,33.80
2018-10-19T10:46:03.148Z,33.20
2018-10-19T10:48:31.646Z,32.40
2018-10-19T10:51:00.309Z,31.70
2018-10-19T10:53:28.789Z,31.10
2018-10-19T10:55:57.289Z,31.00
2018-10-19T10:58:25.765Z,30.80
2018-10-19T11:00:54.282Z,30.00
2018-10-19T11:03:22.760Z,29.60
2018-10-19T11:05:51.281Z,29.50
2018-10-19T11:08:19.777Z,29.50
2018-10-19T11:10:48.306Z,29.40
2018-10-19T11:13:16.792Z,29.30
2018-10-19T11:15:45.301Z,29.20
2018-10-19T11:18:13.768Z,28.80
2018-10-19T11:20:42.289Z,28.50
2018-10-19T11:23:10.777Z,28.90
2018-10-19T11:25:39.280Z,29.40
2018-10-19T11:28:07.952Z,29.40
2018-10-19T11:30:36.585Z,30.80
2018-10-19T11:33:05.177Z,31.20
2018-10-19T11:35:33.689Z,30.90
2018-10-19T11:38:02.254Z,30.80
2018-10-19T11:40:33.034Z,31.40
2018-10-19T11:43:01.718Z,31.20
2018-10-19T11:45:31.543Z,31.00
2018-10-19T11:48:00.154Z,30.80
2018-10-19T11:50:28.677Z,30.80
2018-10-19T11:52:57.213Z,30.70
2018-10-19T11:55:25.693Z,30.20
2018-10-19T11:57:54.276Z,29.30
2018-10-19T12:00:22.826Z,28.60
2018-10-19T12:02:51.349Z,27.80
2018-10-19T12:05:19.829Z,27.00
2018-10-19T12:07:48.344Z,26.20
2018-10-19T12:10:16.891Z,25.60
2018-10-19T12:12:45.353Z,25.10
2018-10-19T12:15:15.235Z,24.70
2018-10-19T12:17:44.285Z,24.30
2018-10-19T12:20:14.175Z,24.10
2018-10-19T12:22:42.721Z,24.00
2018-10-19T12:25:12.260Z,23.70
2018-10-19T12:27:40.969Z,23.60
2018-10-19T12:30:10.145Z,23.20
2018-10-19T12:32:38.861Z,22.90
2018-10-19T12:35:09.057Z,22.60
2018-10-19T12:37:37.577Z,22.50
2018-10-19T12:40:06.965Z,22.20
2018-10-19T12:42:35.792Z,22.00
2018-10-19T12:45:04.500Z,21.90
2018-10-19T12:47:35.217Z,21.90
2018-10-19T12:50:03.766Z,21.80
2018-10-19T12:52:32.285Z,21.70
2018-10-19T12:55:00.906Z,21.70
2018-10-19T12:57:29.374Z,21.60
2018-10-19T12:59:57.821Z,21.60
2018-10-19T13:02:26.481Z,21.40
2018-10-19T13:04:54.973Z,21.40
2018-10-19T13:07:23.744Z,21.40
2018-10-19T13:09:52.397Z,21.40
2018-10-19T13:12:20.905Z,21.30
2018-10-19T13:14:49.381Z,21.20
2018-10-19T13:17:17.885Z,21.20
2018-10-19T13:19:46.365Z,21.10
2018-10-19T13:22:14.845Z,21.20
2018-10-19T13:24:43.409Z,21.10
2018-10-19T13:27:11.997Z,21.20
2018-10-19T13:29:40.457Z,21.30
2018-10-19T13:32:08.945Z,21.30
2018-10-19T13:34:37.451Z,21.30
2018-10-19T13:37:05.975Z,21.30
2018-10-19T13:39:34.489Z,21.30
2018-10-19T13:42:02.968Z,21.20
2018-10-19T13:44:31.501Z,21.10
2018-10-19T13:47:00.065Z,21.00
2018-10-19T13:49:28.520Z,20.90
2018-10-19T13:51:57.005Z,20.90
2018-10-19T13:54:25.497Z,20.80
2018-10-19T13:56:54.031Z,20.70
2018-10-19T13:59:22.520Z,20.70
2018-10-19T14:01:50.998Z,20.70
2018-10-19T14:04:19.507Z,20.70
2018-10-19T14:06:47.992Z,20.60
2018-10-19T14:09:16.595Z,20.60
2018-10-19T14:11:45.018Z,20.50
2018-10-19T14:14:13.528Z,20.50
2018-10-19T14:16:42.001Z,20.50
2018-10-19T14:19:10.532Z,20.50
2018-10-19T14:21:39.005Z,20.40
2018-10-19T14:24:07.521Z,20.40
2018-10-19T14:26:36.067Z,20.40
2018-10-19T14:29:04.868Z,20.40
2018-10-19T14:31:33.411Z,20.40
2018-10-19T14:34:01.934Z,20.50
2018-10-19T14:36:30.413Z,20.60
2018-10-19T14:38:58.957Z,20.70
2018-10-19T14:41:27.413Z,20.70
2018-10-19T14:43:55.926Z,20.80
2018-10-19T14:46:24.405Z,20.80
2018-10-19T14:48:52.916Z,20.70
2018-10-19T14:51:21.409Z,20.70
2018-10-19T14:53:49.922Z,20.60
2018-10-19T14:56:18.401Z,20.60
2018-10-19T14:58:46.913Z,20.60
2018-10-19T15:01:15.401Z,20.50
2018-10-19T15:03:43.892Z,20.40
2018-10-19T15:06:12.385Z,20.30
2018-10-19T15:08:40.893Z,20.30
2018-10-19T15:11:09.486Z,20.30
2018-10-19T15:13:37.873Z,20.20
2018-10-19T15:16:06.649Z,20.10
2018-10-19T15:18:35.187Z,20.00
2018-10-19T15:21:03.697Z,20.00
2018-10-19T15:23:32.125Z,19.90
2018-10-19T15:26:00.629Z,19.80
2018-10-19T15:28:29.101Z,19.80
2018-10-19T15:30:57.621Z,19.70
2018-10-19T15:33:26.120Z,19.70
2018-10-19T15:35:54.634Z,19.70
2018-10-19T15:38:23.136Z,19.60
2018-10-19T15:40:51.649Z,19.60
2018-10-19T15:43:20.124Z,19.70
2018-10-19T15:45:48.629Z,19.70
2018-10-19T15:48:17.177Z,19.60
2018-10-19T15:50:45.641Z,19.60
2018-10-19T15:53:14.105Z,19.50
2018-10-19T15:55:42.613Z,19.50
2018-10-19T15:58:11.084Z,19.40
2018-10-19T16:00:39.680Z,19.30
2018-10-19T16:03:08.097Z,19.20
2018-10-19T16:05:36.620Z,19.20
2018-10-19T16:08:05.169Z,19.10
2018-10-19T16:10:33.672Z,19.00
2018-10-19T16:13:02.152Z,18.90
2018-10-19T16:15:30.649Z,18.80
2018-10-19T16:17:59.128Z,18.80
2018-10-19T16:20:27.645Z,18.70
2018-10-19T16:22:56.173Z,18.60
2018-10-19T16:25:24.680Z,18.50
2018-10-19T16:27:53.153Z,18.40
2018-10-19T16:30:21.659Z,18.40
2018-10-19T16:32:50.133Z,18.20
2018-10-19T16:35:18.637Z,18.10
2018-10-19T16:37:47.120Z,18.10
2018-10-19T16:40:15.642Z,17.90
2018-10-19T16:42:44.125Z,17.90
2018-10-19T16:45:12.663Z,17.70
2018-10-19T16:47:41.132Z,17.70
2018-10-19T16:50:09.657Z,17.60
2018-10-19T16:52:38.227Z,17.50
2018-10-19T16:55:06.681Z,17.40
2018-10-19T16:57:35.141Z,17.30
2018-10-19T17:00:03.747Z,17.20
2018-10-19T17:02:32.221Z,17.10
2018-10-19T17:05:00.756Z,17.10
2018-10-19T17:07:29.229Z,17.00
2018-10-19T17:09:57.700Z,16.90
2018-10-19T17:12:26.216Z,16.90
2018-10-19T17:14:54.747Z,16.80
2018-10-19T17:17:23.289Z,16.80
2018-10-19T17:19:51.770Z,16.70
2018-10-19T17:22:20.301Z,16.70
2018-10-19T17:24:48.781Z,16.70
2018-10-19T17:27:17.331Z,16.60
2018-10-19T17:29:45.769Z,16.60
2018-10-19T17:32:14.437Z,16.50
2018-10-19T17:34:42.905Z,16.40
2018-10-19T17:37:11.474Z,16.40
2018-10-19T17:39:39.917Z,16.30
2018-10-19T17:42:08.470Z,16.20
2018-10-19T17:44:36.925Z,16.10
2018-10-19T17:47:05.673Z,16.10
2018-10-19T17:49:34.151Z,16.00
2018-10-19T17:52:02.657Z,15.90
2018-10-19T17:54:31.192Z,15.90
2018-10-19T17:56:59.667Z,15.80
2018-10-19T17:59:28.129Z,15.80
2018-10-19T18:01:56.629Z,15.70
2018-10-19T18:04:25.097Z,15.60
2018-10-19T18:06:53.597Z,15.60
2018-10-19T18:09:22.122Z,15.50
2018-10-19T18:11:50.597Z,15.50
2018-10-19T18:14:19.072Z,15.40
2018-10-19T18:16:47.565Z,15.40
2018-10-19T18:19:16.025Z,15.40
2018-10-19T18:21:44.587Z,15.30
2018-10-19T18:24:13.009Z,15.20
2018-10-19T18:26:41.513Z,15.20
2018-10-19T18:29:10.028Z,15.10
2018-10-19T18:31:38.501Z,15.10
2018-10-19T18:34:06.980Z,15.00
2018-10-19T18:36:35.488Z,15.00
2018-10-19T18:39:05.346Z,15.00
2018-10-19T18:41:33.891Z,14.90
2018-10-19T18:44:02.371Z,14.90
2018-10-19T18:46:30.857Z,14.90
2018-10-19T18:48:59.336Z,14.80
2018-10-19T18:51:27.845Z,14.80
2018-10-19T18:53:56.349Z,14.70
2018-10-19T18:56:24.849Z,14.70
2018-10-19T18:58:53.367Z,14.70
2018-10-19T19:01:21.845Z,14.70
2018-10-19T19:03:50.322Z,14.60
2018-10-19T19:06:18.851Z,14.60
2018-10-19T19:08:47.332Z,14.60
2018-10-19T19:11:15.882Z,14.60
2018-10-19T19:13:47.247Z,14.50
2018-10-19T19:16:21.034Z,14.50
2018-10-19T19:18:49.549Z,14.40
2018-10-19T19:21:18.080Z,14.40
2018-10-19T19:23:51.966Z,14.30
2018-10-19T19:26:21.880Z,14.30
2018-10-19T19:28:50.375Z,14.30
2018-10-19T19:31:18.884Z,14.30
2018-10-19T19:33:52.633Z,14.20
2018-10-19T19:36:21.182Z,14.20
2018-10-19T19:38:49.697Z,14.20
2018-10-19T19:41:23.498Z,14.10
2018-10-19T19:43:52.001Z,14.10
2018-10-19T19:46:20.525Z,14.00
2018-10-19T19:48:54.468Z,14.00
2018-10-19T19:51:22.908Z,14.00
2018-10-19T19:53:51.381Z,13.90
2018-10-19T19:56:19.900Z,13.90
2018-10-19T19:58:48.382Z,13.80
2018-10-19T20:01:16.890Z,13.70
2018-10-19T20:03:45.381Z,13.70
2018-10-19T20:06:13.924Z,13.70
2018-10-19T20:08:42.395Z,13.60
2018-10-19T20:11:10.985Z,13.60
2018-10-19T20:13:39.422Z,13.60
2018-10-19T20:16:07.932Z,13.50
2018-10-19T20:18:36.438Z,13.50
2018-10-19T20:21:05.440Z,13.40
2018-10-19T20:23:33.911Z,13.40
2018-10-19T20:26:02.429Z,13.30
2018-10-19T20:28:30.920Z,13.40
2018-10-19T20:30:59.393Z,13.40
2018-10-19T20:33:27.960Z,13.40
2018-10-19T20:35:56.396Z,13.30
2018-10-19T20:38:24.914Z,13.20
2018-10-19T20:40:53.451Z,13.30
2018-10-19T20:43:21.897Z,13.20
2018-10-19T20:45:50.375Z,13.20
2018-10-19T20:48:18.877Z,13.20
2018-10-19T20:50:47.348Z,13.20
2018-10-19T20:53:15.947Z,13.10
2018-10-19T20:55:44.355Z,13.10
2018-10-19T20:58:12.900Z,13.20
2018-10-19T21:00:41.467Z,13.20
2018-10-19T21:03:09.941Z,13.10
2018-10-19T21:05:38.418Z,13.20
2018-10-19T21:08:07.040Z,13.10
2018-10-19T21:10:35.512Z,13.10
2018-10-19T21:13:04.038Z,13.20
2018-10-19T21:15:32.549Z,13.20
2018-10-19T21:18:01.037Z,13.20
2018-10-19T21:20:29.549Z,13.20
2018-10-19T21:22:58.061Z,13.20
2018-10-19T21:25:26.551Z,13.20
2018-10-19T21:27:55.041Z,13.30
2018-10-19T21:30:23.557Z,13.30
2018-10-19T21:32:52.037Z,13.30
2018-10-19T21:35:20.553Z,13.30
2018-10-19T21:37:49.045Z,13.30
2018-10-19T21:40:18.416Z,13.30
2018-10-19T21:42:46.900Z,13.20
2018-10-19T21:45:15.424Z,13.20
2018-10-19T21:47:43.904Z,13.20
2018-10-19T21:50:12.481Z,13.30
2018-10-19T21:52:40.930Z,13.30
2018-10-19T21:55:10.929Z,13.20
2018-10-19T21:57:39.513Z,13.30
2018-10-19T22:00:09.053Z,13.20
2018-10-19T22:02:37.561Z,13.30
2018-10-19T22:05:06.372Z,13.30
2018-10-19T22:07:34.841Z,13.30
2018-10-19T22:10:03.405Z,13.30
2018-10-19T22:12:31.885Z,13.20
2018-10-19T22:15:00.416Z,13.20
2018-10-19T22:17:28.908Z,13.20
2018-10-19T22:19:57.430Z,13.20
2018-10-19T22:22:25.961Z,13.20
2018-10-19T22:24:54.483Z,13.20
2018-10-19T22:27:23.024Z,13.20
2018-10-19T22:29:51.521Z,13.10
2018-10-19T22:32:20.033Z,13.20
2018-10-19T22:34:48.965Z,13.20
2018-10-19T22:37:17.497Z,13.20
2018-10-19T22:39:45.993Z,13.20
2018-10-19T22:42:14.619Z,13.20
2018-10-19T22:44:43.105Z,13.20
2018-10-19T22:47:11.638Z,13.30
2018-10-19T22:49:40.129Z,13.20
2018-10-19T22:52:08.639Z,13.20
2018-10-19T22:54:37.102Z,13.20
2018-10-19T22:57:05.657Z,13.10
2018-10-19T22:59:34.142Z,13.00
2018-10-19T23:02:02.668Z,13.00
2018-10-19T23:04:31.151Z,13.00
2018-10-19T23:06:59.714Z,13.10
2018-10-19T23:09:28.258Z,13.10
2018-10-19T23:11:56.769Z,13.10
2018-10-19T23:14:25.250Z,13.10
2018-10-19T23:16:53.783Z,13.00
2018-10-19T23:19:22.257Z,13.00
2018-10-19T23:21:50.761Z,13.10
2018-10-19T23:24:19.240Z,13.10
2018-10-19T23:26:47.741Z,13.10
2018-10-19T23:29:16.276Z,13.10
2018-10-19T23:31:44.769Z,13.10
2018-10-19T23:34:13.369Z,13.10
2018-10-19T23:36:41.853Z,13.10
2018-10-19T23:39:11.753Z,13.10
2018-10-19T23:41:40.841Z,13.10
2018-10-19T23:44:09.638Z,13.10
2018-10-19T23:46:38.427Z,13.10
2018-10-19T23:49:07.186Z,13.10
2018-10-19T23:51:35.646Z,13.10
2018-10-19T23:54:04.186Z,13.10
2018-10-19T23:56:32.676Z,13.10
2018-10-19T23:59:01.216Z,13.00
